Time;durP1;ratioP1;P1;durP2;ratioP2;P2;SDS_P1;SDS_P2;PMS_P1;PMS_P2;Temp;Humidity;BMP_temperature;BMP_pressure;BME280_temperature;BME280_humidity;BME280_pressure;Samples;Min_cycle;Max_cycle;Signal;HPM_P1;HPM_P2
2021/09/16 00:00:46;;;;;;;0.00;0.00;;;17.90;99.90;;;;;;5034618;28;20091;-76
2021/09/16 00:03:12;;;;;;;0.10;0.10;;;18.00;99.90;;;;;;5034725;28;20494;-76
2021/09/16 00:05:37;;;;;;;0.00;0.00;;;18.00;99.90;;;;;;5016702;28;20022;-75
2021/09/16 00:08:03;;;;;;;0.00;0.00;;;18.10;99.90;;;;;;5034430;28;20445;-75
2021/09/16 00:10:29;;;;;;;0.10;0.10;;;18.10;99.90;;;;;;5000441;28;20033;-76
2021/09/16 00:12:55;;;;;;;0.00;0.00;;;18.00;99.90;;;;;;5034428;28;20032;-75
2021/09/16 00:15:21;;;;;;;0.00;0.00;;;17.80;99.90;;;;;;5034361;28;20503;-76
2021/09/16 00:17:47;;;;;;;0.00;0.00;;;17.90;99.90;;;;;;5034240;28;20366;-76
2021/09/16 00:20:13;;;;;;;0.00;0.00;;;18.00;99.90;;;;;;5016574;28;20079;-75
2021/09/16 00:22:38;;;;;;;0.00;0.00;;;18.20;99.90;;;;;;5016450;28;20026;-75
2021/09/16 00:25:07;;;;;;;0.00;0.00;;;18.30;99.90;;;;;;5016315;28;20025;-75
2021/09/16 00:27:32;;;;;;;0.10;0.10;;;18.30;99.90;;;;;;5034165;28;20032;-75
2021/09/16 00:29:58;;;;;;;0.00;0.00;;;18.40;99.90;;;;;;5016426;28;20029;-75
2021/09/16 00:32:24;;;;;;;0.00;0.00;;;18.50;99.90;;;;;;5034152;28;20396;-75
2021/09/16 00:34:50;;;;;;;0.10;0.10;;;18.50;99.90;;;;;;5033991;28;20095;-75
2021/09/16 00:37:16;;;;;;;0.00;0.00;;;18.50;99.90;;;;;;5015973;28;20030;-76
2021/09/16 00:39:42;;;;;;;0.00;0.00;;;18.50;99.90;;;;;;5033955;28;20032;-76
2021/09/16 00:42:08;;;;;;;0.00;0.00;;;18.50;99.90;;;;;;5033882;28;20025;-76
2021/09/16 00:44:34;;;;;;;0.10;0.10;;;18.50;99.90;;;;;;5033743;28;20060;-75
2021/09/16 00:46:59;;;;;;;0.65;0.65;;;18.30;99.90;;;;;;5033573;28;20061;-76
2021/09/16 00:49:25;;;;;;;0.00;0.00;;;18.20;99.90;;;;;;5033874;28;20484;-76
2021/09/16 00:51:52;;;;;;;0.08;0.08;;;18.00;99.90;;;;;;5015955;28;20037;-75
2021/09/16 00:54:19;;;;;;;0.20;0.20;;;17.90;99.90;;;;;;5016012;28;20032;-76
2021/09/16 00:56:48;;;;;;;0.00;0.00;;;17.80;99.90;;;;;;5033622;28;20017;-75
2021/09/16 00:59:18;;;;;;;0.00;0.00;;;17.80;99.90;;;;;;5015834;28;20054;-76
2021/09/16 01:01:44;;;;;;;0.10;0.10;;;17.80;99.90;;;;;;5015756;28;20053;-75
2021/09/16 01:04:10;;;;;;;0.08;0.08;;;17.70;99.90;;;;;;5033470;28;20417;-76
2021/09/16 01:06:36;;;;;;;0.00;0.00;;;17.80;99.90;;;;;;5033162;28;20092;-75
2021/09/16 01:09:01;;;;;;;0.10;0.10;;;17.90;99.90;;;;;;4999287;28;20025;-76
2021/09/16 01:11:27;;;;;;;0.03;0.03;;;17.90;99.90;;;;;;5015603;28;20068;-75
2021/09/16 01:13:55;;;;;;;0.00;0.00;;;17.80;99.90;;;;;;5015683;28;20025;-75
2021/09/16 01:16:20;;;;;;;0.08;0.08;;;17.80;99.90;;;;;;5015311;28;20100;-75
2021/09/16 01:18:46;;;;;;;0.05;0.05;;;17.80;99.90;;;;;;5015296;28;20168;-76
2021/09/16 01:21:12;;;;;;;0.10;0.10;;;17.80;99.90;;;;;;5033072;28;20033;-76
2021/09/16 01:23:37;;;;;;;0.08;0.08;;;17.70;99.90;;;;;;5033023;28;20473;-75
2021/09/16 01:26:03;;;;;;;0.00;0.00;;;17.50;99.90;;;;;;5032940;28;20092;-75
2021/09/16 01:28:29;;;;;;;0.90;0.47;;;17.50;99.90;;;;;;5015311;28;20528;-76
2021/09/16 01:30:55;;;;;;;0.08;0.08;;;17.60;99.90;;;;;;5033072;28;20028;-76
2021/09/16 01:33:20;;;;;;;0.10;0.10;;;17.50;99.90;;;;;;5032866;28;20059;-75
2021/09/16 01:35:46;;;;;;;0.32;0.32;;;17.60;99.90;;;;;;5014986;28;20033;-75
2021/09/16 01:38:12;;;;;;;1.20;0.32;;;17.50;99.90;;;;;;5015078;28;20451;-75
2021/09/16 01:40:37;;;;;;;0.03;0.03;;;17.40;99.90;;;;;;5032820;28;20029;-75
2021/09/16 01:43:03;;;;;;;0.00;0.00;;;17.40;99.90;;;;;;5032799;28;20018;-75
2021/09/16 01:45:29;;;;;;;1.08;0.52;;;17.50;99.90;;;;;;5014891;28;20060;-75
2021/09/16 01:47:55;;;;;;;0.30;0.08;;;17.60;99.90;;;;;;5032428;28;20033;-76
2021/09/16 01:50:23;;;;;;;0.00;0.00;;;17.70;99.90;;;;;;5015073;28;20452;-75
2021/09/16 01:52:50;;;;;;;0.00;0.00;;;17.70;99.90;;;;;;5032628;28;20527;-75
2021/09/16 01:55:17;;;;;;;0.20;0.20;;;17.80;99.90;;;;;;5032716;28;20026;-75
2021/09/16 01:57:43;;;;;;;0.10;0.10;;;17.80;99.90;;;;;;5014832;28;20037;-75
2021/09/16 02:00:09;;;;;;;0.20;0.20;;;17.70;99.90;;;;;;5032477;28;20021;-75
2021/09/16 02:02:35;;;;;;;0.00;0.00;;;17.60;99.90;;;;;;5032392;28;20492;-75
2021/09/16 02:05:02;;;;;;;0.20;0.13;;;17.60;99.90;;;;;;5032372;28;20017;-75
2021/09/16 02:07:27;;;;;;;0.10;0.10;;;17.60;99.90;;;;;;5032198;28;20017;-75
2021/09/16 02:09:53;;;;;;;0.00;0.00;;;17.60;99.90;;;;;;5031930;28;20027;-75
2021/09/16 02:12:19;;;;;;;0.00;0.00;;;17.60;99.90;;;;;;5014727;28;20021;-76
2021/09/16 02:14:45;;;;;;;0.00;0.00;;;17.80;99.90;;;;;;5014617;28;20367;-76
2021/09/16 02:17:11;;;;;;;0.00;0.00;;;18.00;99.90;;;;;;5014184;28;20034;-76
2021/09/16 02:19:36;;;;;;;0.22;0.22;;;18.00;99.90;;;;;;5032161;28;20448;-75
2021/09/16 02:22:03;;;;;;;0.98;0.98;;;18.00;99.90;;;;;;5032068;28;20021;-75
2021/09/16 02:24:29;;;;;;;0.00;0.00;;;17.90;99.90;;;;;;5032021;28;20092;-75
2021/09/16 02:26:54;;;;;;;0.10;0.10;;;18.00;99.90;;;;;;5014529;28;20117;-75
2021/09/16 02:29:20;;;;;;;0.70;0.68;;;18.10;99.90;;;;;;5031984;28;20013;-75
2021/09/16 02:31:46;;;;;;;0.13;0.13;;;17.90;99.90;;;;;;5031915;28;20032;-75
2021/09/16 02:34:11;;;;;;;0.00;0.00;;;17.80;99.90;;;;;;5031933;28;20523;-75
2021/09/16 02:36:37;;;;;;;0.95;0.28;;;17.70;99.90;;;;;;5013960;28;20025;-76
2021/09/16 02:39:03;;;;;;;0.00;0.00;;;17.70;99.90;;;;;;5031850;28;20465;-75
2021/09/16 02:41:29;;;;;;;2.95;0.40;;;17.50;99.90;;;;;;5031896;28;20225;-76
2021/09/16 02:43:54;;;;;;;2.47;2.38;;;17.50;99.90;;;;;;5031911;28;20025;-76
2021/09/16 02:46:20;;;;;;;0.10;0.10;;;17.50;99.90;;;;;;5031536;28;20030;-76
2021/09/16 02:48:46;;;;;;;0.10;0.10;;;17.50;99.90;;;;;;5031787;28;20056;-76
2021/09/16 02:51:12;;;;;;;0.00;0.00;;;17.50;99.90;;;;;;5031850;28;20028;-76
2021/09/16 02:53:37;;;;;;;0.50;0.50;;;17.50;99.90;;;;;;5031714;28;20032;-76
2021/09/16 02:56:03;;;;;;;0.00;0.00;;;17.40;99.90;;;;;;5031633;28;20028;-76
2021/09/16 02:58:29;;;;;;;0.43;0.10;;;17.30;99.90;;;;;;4997404;28;20091;-76
2021/09/16 03:00:55;;;;;;;0.10;0.10;;;17.30;99.90;;;;;;5013983;28;20029;-76
2021/09/16 03:03:21;;;;;;;0.08;0.08;;;17.20;99.90;;;;;;5031674;28;20034;-76
2021/09/16 03:05:47;;;;;;;0.00;0.00;;;17.20;99.90;;;;;;5031621;28;20061;-76
2021/09/16 03:08:13;;;;;;;0.00;0.00;;;17.20;99.90;;;;;;5031568;28;20018;-76
2021/09/16 03:10:39;;;;;;;0.25;0.25;;;17.30;99.90;;;;;;5031704;28;20025;-76
2021/09/16 03:13:05;;;;;;;0.00;0.00;;;17.40;99.90;;;;;;5031578;28;20061;-76
2021/09/16 03:15:31;;;;;;;0.00;0.00;;;17.50;99.90;;;;;;5031921;28;20060;-76
2021/09/16 03:17:57;;;;;;;0.05;0.05;;;17.60;99.90;;;;;;5031361;28;20032;-76
2021/09/16 03:20:22;;;;;;;0.00;0.00;;;17.70;99.90;;;;;;5031439;28;20029;-76
2021/09/16 03:22:48;;;;;;;0.00;0.00;;;17.80;99.90;;;;;;5015629;28;20021;-76
2021/09/16 03:25:15;;;;;;;0.10;0.10;;;18.00;99.90;;;;;;5035212;28;20018;-76
2021/09/16 03:27:41;;;;;;;0.10;0.10;;;18.00;99.90;;;;;;5035746;28;20415;-76
2021/09/16 03:30:09;;;;;;;0.00;0.00;;;18.00;99.90;;;;;;5017310;28;20057;-76
2021/09/16 03:32:35;;;;;;;0.10;0.10;;;17.90;99.90;;;;;;5001223;28;20431;-76
2021/09/16 03:35:01;;;;;;;0.03;0.03;;;18.10;99.90;;;;;;5017153;28;20028;-76
2021/09/16 03:37:27;;;;;;;0.00;0.00;;;18.30;99.90;;;;;;5035188;28;20512;-76
2021/09/16 03:39:53;;;;;;;0.00;0.00;;;18.30;99.90;;;;;;5017379;28;20057;-76
2021/09/16 03:42:18;;;;;;;0.00;0.00;;;18.50;99.90;;;;;;5017451;28;20476;-76
2021/09/16 03:44:44;;;;;;;0.00;0.00;;;18.60;99.90;;;;;;5034655;28;20376;-76
2021/09/16 03:47:11;;;;;;;0.10;0.10;;;18.60;99.90;;;;;;5000623;28;20022;-76
2021/09/16 03:49:39;;;;;;;0.00;0.00;;;18.70;99.90;;;;;;5017158;28;20025;-76
2021/09/16 03:52:06;;;;;;;0.00;0.00;;;18.70;99.90;;;;;;5017142;28;20389;-76
2021/09/16 03:54:33;;;;;;;0.00;0.00;;;18.60;99.90;;;;;;5034530;28;20018;-76
2021/09/16 03:56:59;;;;;;;0.00;0.00;;;18.50;99.90;;;;;;5035257;28;20036;-76
2021/09/16 03:59:25;;;;;;;0.00;0.00;;;18.40;99.90;;;;;;5000548;28;20029;-76
2021/09/16 04:01:50;;;;;;;0.00;0.00;;;18.30;99.90;;;;;;5034758;28;20018;-76
2021/09/16 04:04:16;;;;;;;0.00;0.00;;;18.10;99.90;;;;;;5016728;28;20022;-76
2021/09/16 04:06:42;;;;;;;0.10;0.10;;;18.00;99.90;;;;;;5034393;28;20024;-76
2021/09/16 04:09:08;;;;;;;0.00;0.00;;;18.00;99.90;;;;;;5034577;28;20018;-76
2021/09/16 04:11:33;;;;;;;0.00;0.00;;;18.00;99.90;;;;;;5016728;28;20026;-76
2021/09/16 04:13:59;;;;;;;0.00;0.00;;;18.00;99.90;;;;;;5034346;28;20479;-76
2021/09/16 04:16:25;;;;;;;0.00;0.00;;;18.00;99.90;;;;;;5016490;28;20026;-76
2021/09/16 04:18:50;;;;;;;0.10;0.10;;;17.80;99.90;;;;;;5016519;28;20084;-76
2021/09/16 04:21:16;;;;;;;0.00;0.00;;;17.80;99.90;;;;;;5034255;28;20032;-76
2021/09/16 04:23:42;;;;;;;0.10;0.10;;;17.80;99.90;;;;;;5016555;28;20025;-76
2021/09/16 04:26:08;;;;;;;0.10;0.10;;;17.80;99.90;;;;;;5016452;28;20018;-76
2021/09/16 04:28:33;;;;;;;0.00;0.00;;;17.70;99.90;;;;;;5034005;28;20061;-76
2021/09/16 04:30:59;;;;;;;0.05;0.05;;;17.70;99.90;;;;;;5016408;28;20034;-76
2021/09/16 04:33:25;;;;;;;0.00;0.00;;;17.70;99.90;;;;;;5016010;28;20036;-76
2021/09/16 04:35:51;;;;;;;0.00;0.00;;;17.70;99.90;;;;;;5016190;28;20543;-76
2021/09/16 04:38:17;;;;;;;0.10;0.10;;;17.80;99.90;;;;;;5041781;28;20025;-76
2021/09/16 04:40:43;;;;;;;0.00;0.00;;;18.00;99.90;;;;;;5036755;28;20372;-76
2021/09/16 04:43:09;;;;;;;0.00;0.00;;;17.90;99.90;;;;;;5036020;28;20025;-76
2021/09/16 04:45:35;;;;;;;0.00;0.00;;;17.80;99.90;;;;;;5045317;28;20026;-76
2021/09/16 04:48:01;;;;;;;0.00;0.00;;;17.80;99.90;;;;;;5033613;28;20041;-75
2021/09/16 04:50:27;;;;;;;0.00;0.00;;;17.70;99.90;;;;;;5015893;28;20402;-76
2021/09/16 04:52:53;;;;;;;0.00;0.00;;;17.60;99.90;;;;;;5015994;28;20021;-76
2021/09/16 04:55:19;;;;;;;0.10;0.10;;;17.60;99.90;;;;;;5051372;28;20117;-76
2021/09/16 04:57:45;;;;;;;0.00;0.00;;;17.80;99.90;;;;;;5047822;28;20416;-75
2021/09/16 05:00:11;;;;;;;0.08;0.08;;;17.90;99.90;;;;;;5033488;28;20222;-76
2021/09/16 05:02:37;;;;;;;0.03;0.03;;;17.90;99.90;;;;;;5015909;28;20022;-76
2021/09/16 05:05:03;;;;;;;0.05;0.05;;;18.00;99.90;;;;;;5033265;28;20492;-76
2021/09/16 05:07:29;;;;;;;0.00;0.00;;;18.20;99.90;;;;;;5015625;28;20120;-76
2021/09/16 05:09:55;;;;;;;0.00;0.00;;;18.20;99.90;;;;;;5033296;28;20108;-76
2021/09/16 05:12:21;;;;;;;0.10;0.10;;;18.00;99.90;;;;;;5033842;28;20029;-76
2021/09/16 05:14:46;;;;;;;0.00;0.00;;;18.10;99.90;;;;;;5029696;28;20017;-76
2021/09/16 05:17:12;;;;;;;0.00;0.00;;;18.00;99.90;;;;;;5031088;28;20029;-76
2021/09/16 05:19:38;;;;;;;0.05;0.05;;;18.00;99.90;;;;;;5022263;28;20378;-76
2021/09/16 05:22:04;;;;;;;0.52;0.47;;;17.80;99.90;;;;;;5014365;28;20083;-76
2021/09/16 05:24:30;;;;;;;0.10;0.10;;;17.60;99.90;;;;;;5027829;28;20021;-76
2021/09/16 05:26:56;;;;;;;0.08;0.08;;;17.40;99.90;;;;;;5031925;28;20029;-76
2021/09/16 05:29:22;;;;;;;0.00;0.00;;;17.40;99.90;;;;;;5031188;28;20029;-76
2021/09/16 05:31:47;;;;;;;1.48;0.70;;;17.30;99.90;;;;;;5022118;28;20077;-76
2021/09/16 05:34:13;;;;;;;0.00;0.00;;;17.30;99.90;;;;;;5031891;28;20370;-75
2021/09/16 05:36:39;;;;;;;0.00;0.00;;;17.50;99.90;;;;;;5031283;28;20033;-76
2021/09/16 05:39:05;;;;;;;0.00;0.00;;;17.50;99.90;;;;;;5031619;28;20079;-76
2021/09/16 05:41:31;;;;;;;0.00;0.00;;;17.60;99.90;;;;;;5031255;28;20088;-76
2021/09/16 05:43:58;;;;;;;0.10;0.10;;;17.80;99.90;;;;;;5019811;28;20025;-76
2021/09/16 05:46:24;;;;;;;0.10;0.10;;;17.80;99.90;;;;;;5016341;28;20044;-76
2021/09/16 05:48:49;;;;;;;0.05;0.05;;;17.80;99.90;;;;;;5032909;28;20037;-76
2021/09/16 05:51:15;;;;;;;0.10;0.10;;;17.90;99.90;;;;;;5016152;28;20033;-76
2021/09/16 05:53:41;;;;;;;0.00;0.00;;;18.00;99.90;;;;;;5031233;28;20025;-76
2021/09/16 05:56:07;;;;;;;0.00;0.00;;;18.00;99.90;;;;;;5019660;28;20111;-76
2021/09/16 05:58:32;;;;;;;0.00;0.00;;;18.10;99.90;;;;;;5024845;28;20053;-76
2021/09/16 06:00:58;;;;;;;0.00;0.00;;;18.20;99.90;;;;;;5012889;28;20033;-75
2021/09/16 06:03:24;;;;;;;0.00;0.00;;;18.20;99.90;;;;;;5031358;28;20018;-76
2021/09/16 06:05:50;;;;;;;0.00;0.00;;;18.20;99.90;;;;;;5018299;28;20026;-76
2021/09/16 06:08:15;;;;;;;0.00;0.00;;;18.10;99.90;;;;;;5019463;28;20026;-76
2021/09/16 06:10:41;;;;;;;0.00;0.00;;;18.20;99.90;;;;;;5023563;28;20096;-75
2021/09/16 06:13:07;;;;;;;0.00;0.00;;;18.40;99.90;;;;;;5031554;28;20098;-77
2021/09/16 06:15:36;;;;;;;0.17;0.17;;;18.30;99.90;;;;;;5090290;22;20050;-94
2021/09/16 06:18:18;;;;;;;0.10;0.10;;;18.20;99.90;;;;;;5019084;28;20088;-94
2021/09/16 06:21:07;;;;;;;0.00;0.00;;;18.10;99.90;;;;;;5026061;28;20040;-95
2021/09/16 06:23:53;;;;;;;0.05;0.05;;;18.20;99.90;;;;;;5039210;28;20017;-94
2021/09/16 06:26:30;;;;;;;0.00;0.00;;;18.20;99.90;;;;;;4998387;28;20097;-94
2021/09/16 06:29:11;;;;;;;0.13;0.13;;;18.30;99.90;;;;;;5008090;28;20053;-93
2021/09/16 06:31:40;;;;;;;0.00;0.00;;;18.40;99.90;;;;;;5000755;28;20018;-95
2021/09/16 06:34:20;;;;;;;0.00;0.00;;;18.40;99.90;;;;;;5010254;28;20114;-95
2021/09/16 06:36:46;;;;;;;0.10;0.10;;;18.40;99.90;;;;;;4997656;28;20034;-92
2021/09/16 06:39:38;;;;;;;0.00;0.00;;;18.40;99.90;;;;;;4999992;28;20080;-92
2021/09/16 06:42:07;;;;;;;0.00;0.00;;;18.40;99.90;;;;;;4998899;28;20101;-93
2021/09/16 06:44:33;;;;;;;0.05;0.05;;;18.50;99.90;;;;;;4990548;28;20065;-92
2021/09/16 06:46:58;;;;;;;0.00;0.00;;;18.30;99.90;;;;;;4981490;28;20130;-92
2021/09/16 06:49:24;;;;;;;0.00;0.00;;;18.20;99.90;;;;;;4990449;28;20029;-92
2021/09/16 06:51:50;;;;;;;0.00;0.00;;;18.20;99.90;;;;;;4989803;28;20026;-92
2021/09/16 06:54:16;;;;;;;0.00;0.00;;;18.20;99.90;;;;;;4994316;28;20036;-92
2021/09/16 06:56:41;;;;;;;0.00;0.00;;;18.40;99.90;;;;;;4991708;28;20034;-92
2021/09/16 06:59:09;;;;;;;0.00;0.00;;;18.40;99.90;;;;;;4993501;28;20029;-92
2021/09/16 07:01:42;;;;;;;0.50;0.40;;;18.50;99.90;;;;;;4991375;28;20703;-92
2021/09/16 07:04:17;;;;;;;2.63;0.98;;;18.40;99.90;;;;;;4987742;28;20025;-91
2021/09/16 07:06:42;;;;;;;0.00;0.00;;;18.20;99.90;;;;;;4984447;28;20033;-91
2021/09/16 07:09:10;;;;;;;0.10;0.10;;;18.40;99.90;;;;;;5000212;28;20022;-91
2021/09/16 07:11:36;;;;;;;0.00;0.00;;;18.30;99.90;;;;;;5008653;28;20024;-91
2021/09/16 07:14:08;;;;;;;0.00;0.00;;;18.30;99.90;;;;;;5019089;28;20044;-91
2021/09/16 07:16:37;;;;;;;0.00;0.00;;;18.30;99.90;;;;;;4987001;28;20038;-91
2021/09/16 07:19:11;;;;;;;0.10;0.10;;;18.40;99.90;;;;;;4992864;28;20010;-92
2021/09/16 07:21:39;;;;;;;0.00;0.00;;;18.30;99.90;;;;;;4989716;28;20069;-91
2021/09/16 07:24:21;;;;;;;;;;;;;;;;;;;;;
2021/09/16 07:26:53;;;;;;;0.00;0.00;;;18.10;99.90;;;;;;5008141;28;20037;-92
2021/09/16 07:29:20;;;;;;;0.00;0.00;;;18.00;99.90;;;;;;4999154;28;20025;-91
2021/09/16 07:31:54;;;;;;;0.00;0.00;;;18.10;99.90;;;;;;4991511;28;20033;-92
2021/09/16 07:34:21;;;;;;;0.00;0.00;;;18.20;99.90;;;;;;5001734;28;20025;-91
2021/09/16 07:36:47;;;;;;;0.00;0.00;;;18.40;99.90;;;;;;4990779;28;20023;-92
2021/09/16 07:39:17;;;;;;;0.05;0.05;;;18.60;99.90;;;;;;4987218;28;20080;-92
2021/09/16 07:41:53;;;;;;;0.10;0.10;;;18.50;99.90;;;;;;5009196;28;20034;-91
2021/09/16 07:44:44;;;;;;;0.00;0.00;;;18.40;99.90;;;;;;4994372;28;20029;-93
2021/09/16 07:47:24;;;;;;;0.00;0.00;;;18.30;99.90;;;;;;5012660;28;20026;-93
2021/09/16 07:50:12;;;;;;;3.72;0.63;;;18.10;99.90;;;;;;4986759;28;20149;-92
2021/09/16 07:52:51;;;;;;;0.10;0.10;;;18.00;99.90;;;;;;5002746;28;20030;-92
2021/09/16 07:55:30;;;;;;;0.00;0.00;;;17.90;99.90;;;;;;4992101;28;20072;-93
2021/09/16 08:02:06;;;;;;;0.43;0.28;;;17.90;99.90;;;;;;5020434;28;20034;-92
2021/09/16 08:04:53;;;;;;;0.10;0.10;;;18.00;99.90;;;;;;5019248;28;20030;-93
2021/09/16 08:07:29;;;;;;;0.00;0.00;;;18.10;99.90;;;;;;5003503;28;20475;-91
2021/09/16 08:09:54;;;;;;;0.00;0.00;;;18.10;99.90;;;;;;4988783;28;20058;-91
2021/09/16 08:12:20;;;;;;;0.00;0.00;;;18.20;99.90;;;;;;4985550;28;20168;-92
2021/09/16 08:14:46;;;;;;;0.00;0.00;;;18.30;99.90;;;;;;4994780;28;20029;-92
2021/09/16 08:17:15;;;;;;;0.00;0.00;;;18.30;99.90;;;;;;4995105;28;20026;-91
2021/09/16 08:19:51;;;;;;;0.00;0.00;;;18.30;99.90;;;;;;4985551;28;20061;-92
2021/09/16 08:22:16;;;;;;;0.00;0.00;;;18.40;99.90;;;;;;4988357;28;20042;-92
2021/09/16 08:24:43;;;;;;;0.00;0.00;;;18.40;99.90;;;;;;4989340;28;20411;-92
2021/09/16 08:27:09;;;;;;;0.00;0.00;;;18.40;99.90;;;;;;5003416;28;20038;-92
2021/09/16 08:29:35;;;;;;;0.57;0.40;;;18.50;99.90;;;;;;4990779;28;20026;-92
2021/09/16 08:32:00;;;;;;;0.00;0.00;;;18.60;99.90;;;;;;4988738;28;20117;-91
2021/09/16 08:34:28;;;;;;;0.00;0.00;;;18.50;99.90;;;;;;4979620;28;20077;-92
2021/09/16 08:36:55;;;;;;;0.00;0.00;;;18.60;99.90;;;;;;4992709;28;20455;-91
2021/09/16 08:39:22;;;;;;;0.32;0.32;;;18.60;99.90;;;;;;4982229;28;20650;-91
2021/09/16 08:41:48;;;;;;;0.00;0.00;;;18.70;99.90;;;;;;4992922;28;20065;-91
2021/09/16 08:44:16;;;;;;;0.05;0.05;;;18.70;99.90;;;;;;4998704;28;20030;-92
2021/09/16 08:46:42;;;;;;;0.00;0.00;;;18.80;99.90;;;;;;4990697;28;20029;-92
2021/09/16 08:49:09;;;;;;;0.10;0.10;;;18.70;99.90;;;;;;4997562;28;20503;-91
2021/09/16 08:51:41;;;;;;;0.10;0.10;;;18.70;99.90;;;;;;4994098;28;20025;-92
2021/09/16 08:54:11;;;;;;;0.45;0.45;;;18.60;99.90;;;;;;4988886;28;20034;-91
2021/09/16 08:56:43;;;;;;;0.30;0.30;;;18.50;99.90;;;;;;4993326;28;20076;-92
2021/09/16 08:59:12;;;;;;;0.00;0.00;;;18.40;99.90;;;;;;4990025;28;20026;-92
2021/09/16 09:01:45;;;;;;;1.35;0.45;;;18.50;99.90;;;;;;5011374;28;20037;-92
2021/09/16 09:04:16;;;;;;;0.35;0.35;;;18.50;99.90;;;;;;4986481;28;20045;-92
2021/09/16 09:06:54;;;;;;;0.05;0.05;;;18.50;99.90;;;;;;4992334;28;20038;-92
2021/09/16 09:09:52;;;;;;;0.00;0.00;;;18.40;99.90;;;;;;4988657;28;20092;-91
2021/09/16 09:12:39;;;;;;;0.80;0.57;;;18.40;99.90;;;;;;4993808;28;20021;-92
2021/09/16 09:15:12;;;;;;;;;;;18.30;99.90;;;;;;5004687;28;20057;-91
2021/09/16 09:18:31;;;;;;;0.10;0.10;;;18.30;99.90;;;;;;5011278;28;19921;-91
2021/09/16 09:21:10;;;;;;;0.08;0.08;;;18.20;99.90;;;;;;4980195;28;20042;-91
2021/09/16 09:23:51;;;;;;;0.20;0.10;;;18.20;99.90;;;;;;5003050;28;20049;-95
2021/09/16 09:26:35;;;;;;;0.50;0.50;;;18.30;99.90;;;;;;4989447;28;20124;-92
2021/09/16 09:29:10;;;;;;;0.00;0.00;;;18.30;99.90;;;;;;4989255;28;20025;-92
2021/09/16 09:31:53;;;;;;;0.00;0.00;;;18.50;99.90;;;;;;4987284;28;20041;-92
2021/09/16 09:34:40;;;;;;;0.17;0.17;;;18.60;99.90;;;;;;4981227;28;20026;-92
2021/09/16 09:37:20;;;;;;;0.00;0.00;;;18.60;99.90;;;;;;4991838;28;20026;-92
2021/09/16 09:40:05;;;;;;;0.00;0.00;;;18.70;99.90;;;;;;4989659;28;20068;-92
2021/09/16 09:43:16;;;;;;;0.55;0.55;;;18.80;99.90;;;;;;4988955;28;20463;-92
2021/09/16 09:45:58;;;;;;;0.00;0.00;;;18.90;99.90;;;;;;5001519;28;20495;-92
2021/09/16 09:48:24;;;;;;;0.00;0.00;;;18.80;99.90;;;;;;4988777;28;20030;-92
2021/09/16 09:50:54;;;;;;;0.00;0.00;;;18.90;99.90;;;;;;4991001;28;20516;-93
2021/09/16 09:53:20;;;;;;;4.25;1.60;;;18.90;99.90;;;;;;4987681;28;20507;-92
2021/09/16 09:55:46;;;;;;;0.00;0.00;;;18.80;99.90;;;;;;4980715;28;20026;-92
2021/09/16 09:59:01;;;;;;;0.00;0.00;;;18.80;99.90;;;;;;4989865;28;20118;-92
2021/09/16 10:01:36;;;;;;;0.00;0.00;;;18.90;99.90;;;;;;5011308;28;20052;-92
2021/09/16 10:04:24;;;;;;;0.40;0.40;;;19.00;99.90;;;;;;5009795;28;20109;-93
2021/09/16 10:06:52;;;;;;;0.10;0.10;;;18.90;99.90;;;;;;4987102;28;20037;-92
2021/09/16 10:09:39;;;;;;;0.00;0.00;;;18.50;99.90;;;;;;4984506;28;20025;-93
2021/09/16 10:12:05;;;;;;;2.72;0.65;;;18.50;99.90;;;;;;4989706;28;20034;-93
2021/09/16 10:14:31;;;;;;;0.00;0.00;;;18.50;99.90;;;;;;4994571;28;20022;-93
2021/09/16 10:16:57;;;;;;;0.00;0.00;;;18.40;99.90;;;;;;4996435;28;20049;-92
2021/09/16 10:19:22;;;;;;;0.80;0.40;;;18.40;99.90;;;;;;4993658;28;20022;-92
2021/09/16 10:21:48;;;;;;;0.55;0.43;;;18.40;99.90;;;;;;4993603;28;20331;-92
2021/09/16 10:24:17;;;;;;;1.20;1.00;;;18.50;99.90;;;;;;4996578;28;20033;-92
2021/09/16 10:26:48;;;;;;;0.10;0.10;;;18.50;99.90;;;;;;5007945;28;20014;-93
2021/09/16 10:29:26;;;;;;;0.93;0.70;;;18.40;99.90;;;;;;5021975;28;20037;-93
2021/09/16 10:32:07;;;;;;;0.25;0.20;;;18.30;99.90;;;;;;4996348;28;20105;-91
2021/09/16 10:34:43;;;;;;;0.52;0.47;;;18.30;99.90;;;;;;4991989;28;20465;-91
2021/09/16 10:37:14;;;;;;;0.60;0.22;;;18.40;99.90;;;;;;4987322;28;20052;-92
2021/09/16 10:39:42;;;;;;;0.00;0.00;;;18.40;99.90;;;;;;4990300;28;20048;-92
2021/09/16 10:42:18;;;;;;;0.03;0.03;;;18.60;99.90;;;;;;4989114;28;20073;-91
2021/09/16 10:44:44;;;;;;;2.22;1.02;;;18.70;99.90;;;;;;4993663;28;20100;-92
2021/09/16 10:47:28;;;;;;;2.05;1.13;;;18.70;99.90;;;;;;4991000;28;20045;-91
2021/09/16 10:49:54;;;;;;;2.28;1.40;;;18.90;99.90;;;;;;4991744;28;20525;-92
2021/09/16 10:52:23;;;;;;;0.03;0.03;;;18.70;99.90;;;;;;4988322;28;20030;-91
2021/09/16 10:54:54;;;;;;;0.00;0.00;;;18.90;99.90;;;;;;4981214;28;20033;-91
2021/09/16 10:57:37;;;;;;;0.00;0.00;;;18.80;99.90;;;;;;4993879;28;20060;-91
2021/09/16 11:00:09;;;;;;;0.25;0.25;;;19.00;99.90;;;;;;5006439;28;20027;-91
2021/09/16 11:02:40;;;;;;;0.65;0.17;;;19.00;99.90;;;;;;5010575;28;20053;-91
2021/09/16 11:05:10;;;;;;;0.32;0.05;;;19.00;99.90;;;;;;4993511;28;20030;-91
2021/09/16 11:07:55;;;;;;;0.55;0.55;;;19.20;99.90;;;;;;4977716;28;20052;-91
2021/09/16 11:10:30;;;;;;;0.00;0.00;;;19.20;99.90;;;;;;4994053;28;20487;-92
2021/09/16 11:13:21;;;;;;;0.10;0.10;;;19.30;99.90;;;;;;4984105;28;20030;-91
2021/09/16 11:15:57;;;;;;;0.00;0.00;;;19.20;99.90;;;;;;4985985;28;20029;-91
2021/09/16 11:18:32;;;;;;;0.05;0.05;;;19.10;99.90;;;;;;4988222;28;20030;-91
2021/09/16 11:21:06;;;;;;;0.00;0.00;;;19.00;99.90;;;;;;4983338;28;20057;-91
2021/09/16 11:23:38;;;;;;;0.13;0.13;;;18.90;99.90;;;;;;4992736;28;20084;-91
2021/09/16 11:26:12;;;;;;;0.00;0.00;;;18.90;99.90;;;;;;4986741;28;20026;-91
2021/09/16 11:28:54;;;;;;;0.10;0.10;;;19.00;99.90;;;;;;4983764;28;20079;-91
2021/09/16 11:31:25;;;;;;;0.00;0.00;;;19.00;99.90;;;;;;4988978;28;20034;-91
2021/09/16 11:34:12;;;;;;;0.30;0.30;;;19.10;99.90;;;;;;4978515;28;20030;-92
2021/09/16 11:37:08;;;;;;;0.30;0.30;;;19.10;99.90;;;;;;4993229;28;20011;-92
2021/09/16 11:39:35;;;;;;;0.00;0.00;;;19.00;99.90;;;;;;5001492;28;20487;-91
2021/09/16 11:42:16;;;;;;;0.10;0.10;;;18.90;99.90;;;;;;4990682;28;20072;-90
2021/09/16 11:45:01;;;;;;;0.10;0.10;;;19.00;99.90;;;;;;4991189;28;20640;-91
2021/09/16 11:47:28;;;;;;;0.10;0.10;;;19.20;99.90;;;;;;4991051;28;20057;-92
2021/09/16 11:49:59;;;;;;;0.25;0.25;;;19.20;99.90;;;;;;4989444;28;20025;-91
2021/09/16 11:52:30;;;;;;;0.10;0.10;;;19.10;99.90;;;;;;4982881;28;20022;-91
2021/09/16 11:55:11;;;;;;;0.20;0.20;;;19.10;99.90;;;;;;4987195;28;20041;-91
2021/09/16 11:58:29;;;;;;;0.00;0.00;;;19.20;99.90;;;;;;4969030;28;20031;-91
2021/09/16 12:01:10;;;;;;;0.20;0.10;;;19.30;99.90;;;;;;4997377;28;20026;-91
2021/09/16 12:04:03;;;;;;;0.00;0.00;;;19.70;99.90;;;;;;5006176;28;20041;-96
2021/09/16 12:06:34;;;;;;;1.70;1.52;;;19.90;99.90;;;;;;5012686;28;20062;-96
2021/09/16 12:09:02;;;;;;;0.00;0.00;;;19.90;99.90;;;;;;5022534;28;20021;-96
2021/09/16 12:11:38;;;;;;;0.10;0.10;;;19.80;99.90;;;;;;5013635;28;20072;-94
2021/09/16 12:14:08;;;;;;;0.08;0.08;;;20.00;99.90;;;;;;5003271;28;20022;-94
2021/09/16 12:16:45;;;;;;;0.00;0.00;;;19.70;99.90;;;;;;5030610;28;20026;-94
2021/09/16 12:19:20;;;;;;;1.00;0.28;;;19.70;99.90;;;;;;5006552;28;20025;-95
2021/09/16 12:21:54;;;;;;;0.00;0.00;;;19.80;99.90;;;;;;5015003;28;20030;-95
2021/09/16 12:24:32;;;;;;;1.27;1.17;;;19.80;99.90;;;;;;5002653;28;20022;-94
2021/09/16 12:26:58;;;;;;;0.10;0.10;;;19.80;99.90;;;;;;5013011;28;20029;-95
2021/09/16 12:29:34;;;;;;;0.10;0.10;;;19.90;99.90;;;;;;5019346;28;20020;-93
2021/09/16 12:32:18;;;;;;;0.00;0.00;;;19.90;99.90;;;;;;5009707;28;20033;-93
2021/09/16 12:34:57;;;;;;;0.65;0.65;;;20.00;99.90;;;;;;5018736;28;20017;-94
2021/09/16 12:37:33;;;;;;;0.20;0.20;;;19.70;99.90;;;;;;5031903;28;20025;-95
2021/09/16 12:40:08;;;;;;;0.15;0.15;;;19.70;99.90;;;;;;5001857;28;20038;-95
2021/09/16 12:42:41;;;;;;;0.10;0.10;;;19.90;99.90;;;;;;5005145;28;20022;-95
2021/09/16 12:45:14;;;;;;;0.03;0.03;;;20.00;99.90;;;;;;5008492;28;20041;-95
2021/09/16 12:47:49;;;;;;;0.10;0.10;;;20.20;99.90;;;;;;5016162;28;20036;-95
2021/09/16 12:50:17;;;;;;;0.10;0.10;;;20.50;99.90;;;;;;5006789;28;20026;-95
2021/09/16 12:52:43;;;;;;;0.43;0.30;;;20.60;99.90;;;;;;5006918;28;20090;-95
2021/09/16 12:55:13;;;;;;;0.00;0.00;;;20.40;99.90;;;;;;5008502;28;20026;-93
2021/09/16 12:58:05;;;;;;;0.00;0.00;;;20.40;99.90;;;;;;5008984;28;20058;-93
2021/09/16 13:00:33;;;;;;;6.63;1.35;;;20.60;99.90;;;;;;5003368;28;20058;-95
2021/09/16 13:03:02;;;;;;;0.20;0.20;;;20.70;99.90;;;;;;5003200;28;20026;-94
2021/09/16 13:05:37;;;;;;;1.08;0.65;;;20.70;99.90;;;;;;5013352;28;20022;-95
2021/09/16 13:08:10;;;;;;;0.20;0.20;;;20.70;99.90;;;;;;4999204;28;20098;-94